Lake Mattawa, Massachusetts
Current Conditions -  °F | °C
As of 2:13 AM on Friday 19 Dec 2014 (Local Time) from KORE Reporting Station
Overcast Overcast  
Wind Chill: 28°   Ceiling: 4100
Heat Index: 33°   Visibility: 10mi
Dew Point: 24°   Wind: 6mph
Humidity: 70%   Direction: NA
Pressure: 29.89"   Gusts: NA
Location:  42.614°N, 72.3011°W
Report Text: KORE 190713Z AUTO VRB05KT 10SM SCT026 SCT033 OVC041 01/M04 A2989 RMK AO2 T00061044
Loading
Personal Weather Stations






























Interactive Weather Map New forecast layout! Learn more

10-Day Weather Forecast

Advertisements
Track Severe Weather on mobile